sensor_id;sensor_type;location;lat;lon;timestamp;P1;durP1;ratioP1;P2;durP2;ratioP2
73437;SDS011;62744;56.802;23.964;2022-09-24T00:01:38;15.93;;;7.57;;
73437;SDS011;62744;56.802;23.964;2022-09-24T00:04:08;15.77;;;7.35;;
73437;SDS011;62744;56.802;23.964;2022-09-24T00:06:43;12.30;;;7.73;;
73437;SDS011;62744;56.802;23.964;2022-09-24T00:09:13;13.18;;;7.38;;
73437;SDS011;62744;56.802;23.964;2022-09-24T00:11:42;11.88;;;7.40;;
73437;SDS011;62744;56.802;23.964;2022-09-24T00:14:11;15.38;;;7.30;;
73437;SDS011;62744;56.802;23.964;2022-09-24T00:16:39;13.95;;;6.13;;
73437;SDS011;62744;56.802;23.964;2022-09-24T00:19:10;12.03;;;7.17;;
73437;SDS011;62744;56.802;23.964;2022-09-24T00:21:38;13.27;;;7.07;;
73437;SDS011;62744;56.802;23.964;2022-09-24T00:24:08;14.20;;;6.95;;
73437;SDS011;62744;56.802;23.964;2022-09-24T00:26:58;14.82;;;7.22;;
73437;SDS011;62744;56.802;23.964;2022-09-24T00:29:26;13.52;;;7.43;;
73437;SDS011;62744;56.802;23.964;2022-09-24T00:31:54;14.80;;;7.15;;
73437;SDS011;62744;56.802;23.964;2022-09-24T00:34:22;14.00;;;7.28;;
73437;SDS011;62744;56.802;23.964;2022-09-24T00:36:50;12.15;;;7.60;;
73437;SDS011;62744;56.802;23.964;2022-09-24T00:39:18;13.25;;;7.22;;
73437;SDS011;62744;56.802;23.964;2022-09-24T00:41:46;12.75;;;7.07;;
73437;SDS011;62744;56.802;23.964;2022-09-24T00:47:12;10.75;;;6.13;;
73437;SDS011;62744;56.802;23.964;2022-09-24T00:50:07;12.40;;;7.55;;
73437;SDS011;62744;56.802;23.964;2022-09-24T00:52:37;13.35;;;6.45;;
73437;SDS011;62744;56.802;23.964;2022-09-24T00:55:08;12.23;;;6.80;;
73437;SDS011;62744;56.802;23.964;2022-09-24T00:57:37;11.30;;;6.80;;
73437;SDS011;62744;56.802;23.964;2022-09-24T01:00:05;12.50;;;6.90;;
73437;SDS011;62744;56.802;23.964;2022-09-24T01:02:35;10.75;;;7.05;;
73437;SDS011;62744;56.802;23.964;2022-09-24T01:05:05;12.25;;;6.57;;
73437;SDS011;62744;56.802;23.964;2022-09-24T01:07:33;13.00;;;7.53;;
73437;SDS011;62744;56.802;23.964;2022-09-24T01:10:01;11.20;;;7.40;;
73437;SDS011;62744;56.802;23.964;2022-09-24T01:12:45;11.80;;;6.13;;
73437;SDS011;62744;56.802;23.964;2022-09-24T01:18:11;13.43;;;6.50;;
73437;SDS011;62744;56.802;23.964;2022-09-24T01:32:13;11.77;;;7.25;;
73437;SDS011;62744;56.802;23.964;2022-09-24T01:35:01;15.35;;;7.13;;
73437;SDS011;62744;56.802;23.964;2022-09-24T01:37:36;13.45;;;7.28;;
73437;SDS011;62744;56.802;23.964;2022-09-24T01:40:09;12.63;;;6.93;;
73437;SDS011;62744;56.802;23.964;2022-09-24T01:42:38;14.13;;;6.95;;
73437;SDS011;62744;56.802;23.964;2022-09-24T01:45:08;12.30;;;5.70;;
73437;SDS011;62744;56.802;23.964;2022-09-24T01:47:37;11.35;;;6.07;;
73437;SDS011;62744;56.802;23.964;2022-09-24T01:50:10;10.50;;;5.88;;
73437;SDS011;62744;56.802;23.964;2022-09-24T01:52:44;10.80;;;6.38;;
73437;SDS011;62744;56.802;23.964;2022-09-24T01:55:32;10.55;;;6.00;;
73437;SDS011;62744;56.802;23.964;2022-09-24T01:58:05;12.13;;;5.45;;
73437;SDS011;62744;56.802;23.964;2022-09-24T02:00:40;10.18;;;5.55;;
73437;SDS011;62744;56.802;23.964;2022-09-24T02:03:14;9.13;;;5.40;;
73437;SDS011;62744;56.802;23.964;2022-09-24T02:05:54;13.57;;;6.07;;
73437;SDS011;62744;56.802;23.964;2022-09-24T02:08:32;9.63;;;6.28;;
73437;SDS011;62744;56.802;23.964;2022-09-24T02:13:56;11.00;;;6.28;;
73437;SDS011;62744;56.802;23.964;2022-09-24T02:16:46;12.93;;;6.47;;
73437;SDS011;62744;56.802;23.964;2022-09-24T02:19:18;11.07;;;6.43;;
73437;SDS011;62744;56.802;23.964;2022-09-24T02:21:50;11.43;;;6.63;;
73437;SDS011;62744;56.802;23.964;2022-09-24T02:24:20;9.63;;;6.30;;
73437;SDS011;62744;56.802;23.964;2022-09-24T02:26:51;9.60;;;5.68;;
73437;SDS011;62744;56.802;23.964;2022-09-24T02:29:20;9.63;;;6.30;;
73437;SDS011;62744;56.802;23.964;2022-09-24T02:31:48;9.57;;;5.93;;
73437;SDS011;62744;56.802;23.964;2022-09-24T02:34:42;14.65;;;11.63;;
73437;SDS011;62744;56.802;23.964;2022-09-24T02:37:13;18.00;;;12.32;;
73437;SDS011;62744;56.802;23.964;2022-09-24T02:39:41;15.20;;;10.93;;
73437;SDS011;62744;56.802;23.964;2022-09-24T02:42:09;12.33;;;7.20;;
73437;SDS011;62744;56.802;23.964;2022-09-24T02:44:39;11.85;;;6.25;;
73437;SDS011;62744;56.802;23.964;2022-09-24T02:47:07;10.73;;;5.38;;
73437;SDS011;62744;56.802;23.964;2022-09-24T02:49:34;9.25;;;5.57;;
73437;SDS011;62744;56.802;23.964;2022-09-24T02:52:02;8.98;;;5.15;;
73437;SDS011;62744;56.802;23.964;2022-09-24T02:54:30;8.27;;;5.17;;
73437;SDS011;62744;56.802;23.964;2022-09-24T02:56:57;9.32;;;5.07;;
73437;SDS011;62744;56.802;23.964;2022-09-24T02:59:25;7.85;;;4.72;;
73437;SDS011;62744;56.802;23.964;2022-09-24T03:01:52;10.55;;;6.55;;
73437;SDS011;62744;56.802;23.964;2022-09-24T03:04:20;16.38;;;4.43;;
73437;SDS011;62744;56.802;23.964;2022-09-24T03:06:47;9.07;;;4.73;;
73437;SDS011;62744;56.802;23.964;2022-09-24T03:09:15;7.40;;;4.45;;
73437;SDS011;62744;56.802;23.964;2022-09-24T03:11:43;7.28;;;4.40;;
73437;SDS011;62744;56.802;23.964;2022-09-24T03:14:10;8.18;;;3.65;;
73437;SDS011;62744;56.802;23.964;2022-09-24T03:16:37;12.23;;;5.97;;
73437;SDS011;62744;56.802;23.964;2022-09-24T03:19:05;8.57;;;4.47;;
73437;SDS011;62744;56.802;23.964;2022-09-24T03:21:33;7.55;;;4.70;;
73437;SDS011;62744;56.802;23.964;2022-09-24T03:24:00;8.02;;;4.68;;
73437;SDS011;62744;56.802;23.964;2022-09-24T03:26:30;8.77;;;4.40;;
73437;SDS011;62744;56.802;23.964;2022-09-24T03:28:57;7.65;;;4.82;;
73437;SDS011;62744;56.802;23.964;2022-09-24T03:31:25;9.17;;;4.67;;
73437;SDS011;62744;56.802;23.964;2022-09-24T03:33:52;10.48;;;5.80;;
73437;SDS011;62744;56.802;23.964;2022-09-24T03:36:20;10.88;;;4.30;;
73437;SDS011;62744;56.802;23.964;2022-09-24T03:38:51;10.38;;;5.10;;
73437;SDS011;62744;56.802;23.964;2022-09-24T03:41:22;10.95;;;5.97;;
73437;SDS011;62744;56.802;23.964;2022-09-24T03:43:51;11.07;;;5.57;;
73437;SDS011;62744;56.802;23.964;2022-09-24T03:46:19;10.32;;;5.38;;
73437;SDS011;62744;56.802;23.964;2022-09-24T03:48:46;11.50;;;5.55;;
73437;SDS011;62744;56.802;23.964;2022-09-24T03:51:15;10.18;;;4.93;;
73437;SDS011;62744;56.802;23.964;2022-09-24T03:53:46;8.45;;;5.00;;
73437;SDS011;62744;56.802;23.964;2022-09-24T03:56:14;8.37;;;5.17;;
73437;SDS011;62744;56.802;23.964;2022-09-24T03:58:42;9.48;;;4.93;;
73437;SDS011;62744;56.802;23.964;2022-09-24T04:01:14;11.38;;;5.25;;
73437;SDS011;62744;56.802;23.964;2022-09-24T04:03:48;9.25;;;4.63;;
73437;SDS011;62744;56.802;23.964;2022-09-24T04:06:16;8.50;;;4.97;;
73437;SDS011;62744;56.802;23.964;2022-09-24T04:08:51;9.00;;;5.53;;
73437;SDS011;62744;56.802;23.964;2022-09-24T04:11:18;10.73;;;5.72;;
73437;SDS011;62744;56.802;23.964;2022-09-24T04:13:46;10.10;;;4.90;;
73437;SDS011;62744;56.802;23.964;2022-09-24T04:16:13;10.38;;;4.68;;
73437;SDS011;62744;56.802;23.964;2022-09-24T04:18:41;10.38;;;5.20;;
73437;SDS011;62744;56.802;23.964;2022-09-24T04:21:09;8.47;;;4.87;;
73437;SDS011;62744;56.802;23.964;2022-09-24T04:23:36;12.68;;;5.00;;
73437;SDS011;62744;56.802;23.964;2022-09-24T04:26:04;9.85;;;5.30;;
73437;SDS011;62744;56.802;23.964;2022-09-24T04:28:31;10.00;;;5.00;;
73437;SDS011;62744;56.802;23.964;2022-09-24T04:30:59;11.50;;;5.20;;
73437;SDS011;62744;56.802;23.964;2022-09-24T04:33:27;12.33;;;4.77;;
73437;SDS011;62744;56.802;23.964;2022-09-24T04:35:54;10.43;;;5.30;;
73437;SDS011;62744;56.802;23.964;2022-09-24T04:38:21;10.35;;;4.82;;
73437;SDS011;62744;56.802;23.964;2022-09-24T04:40:50;9.25;;;4.82;;
73437;SDS011;62744;56.802;23.964;2022-09-24T04:43:17;9.75;;;5.22;;
73437;SDS011;62744;56.802;23.964;2022-09-24T04:45:45;8.77;;;4.90;;
73437;SDS011;62744;56.802;23.964;2022-09-24T04:48:12;11.02;;;5.28;;
73437;SDS011;62744;56.802;23.964;2022-09-24T04:50:40;9.57;;;5.30;;
73437;SDS011;62744;56.802;23.964;2022-09-24T04:53:11;10.50;;;5.65;;
73437;SDS011;62744;56.802;23.964;2022-09-24T04:55:39;10.73;;;5.20;;
73437;SDS011;62744;56.802;23.964;2022-09-24T04:58:07;11.20;;;5.73;;
73437;SDS011;62744;56.802;23.964;2022-09-24T05:00:35;9.10;;;5.72;;
73437;SDS011;62744;56.802;23.964;2022-09-24T05:03:03;9.88;;;5.00;;
73437;SDS011;62744;56.802;23.964;2022-09-24T05:05:31;10.45;;;4.97;;
73437;SDS011;62744;56.802;23.964;2022-09-24T05:08:00;8.73;;;4.93;;
73437;SDS011;62744;56.802;23.964;2022-09-24T05:10:28;9.77;;;5.50;;
73437;SDS011;62744;56.802;23.964;2022-09-24T05:13:00;9.52;;;4.85;;
73437;SDS011;62744;56.802;23.964;2022-09-24T05:15:27;11.05;;;5.45;;
73437;SDS011;62744;56.802;23.964;2022-09-24T05:17:55;12.85;;;5.88;;
73437;SDS011;62744;56.802;23.964;2022-09-24T05:20:22;13.15;;;6.57;;
73437;SDS011;62744;56.802;23.964;2022-09-24T05:22:50;13.23;;;6.27;;
73437;SDS011;62744;56.802;23.964;2022-09-24T05:25:17;9.10;;;5.63;;
73437;SDS011;62744;56.802;23.964;2022-09-24T05:27:47;11.38;;;6.30;;
73437;SDS011;62744;56.802;23.964;2022-09-24T05:30:17;10.60;;;5.95;;
73437;SDS011;62744;56.802;23.964;2022-09-24T05:32:46;11.70;;;6.97;;
73437;SDS011;62744;56.802;23.964;2022-09-24T05:35:20;27.85;;;13.98;;
73437;SDS011;62744;56.802;23.964;2022-09-24T05:37:49;24.08;;;11.57;;
73437;SDS011;62744;56.802;23.964;2022-09-24T05:40:19;23.75;;;13.90;;
73437;SDS011;62744;56.802;23.964;2022-09-24T05:43:06;36.70;;;18.98;;
73437;SDS011;62744;56.802;23.964;2022-09-24T05:45:33;32.60;;;16.50;;
73437;SDS011;62744;56.802;23.964;2022-09-24T05:48:00;56.65;;;32.13;;
73437;SDS011;62744;56.802;23.964;2022-09-24T05:50:28;26.33;;;13.77;;
73437;SDS011;62744;56.802;23.964;2022-09-24T05:52:56;24.88;;;13.68;;
73437;SDS011;62744;56.802;23.964;2022-09-24T05:55:24;20.63;;;10.90;;
73437;SDS011;62744;56.802;23.964;2022-09-24T05:58:15;15.77;;;9.02;;
73437;SDS011;62744;56.802;23.964;2022-09-24T06:00:43;13.07;;;7.20;;
73437;SDS011;62744;56.802;23.964;2022-09-24T06:03:14;11.82;;;7.28;;
73437;SDS011;62744;56.802;23.964;2022-09-24T06:05:47;9.20;;;5.78;;
73437;SDS011;62744;56.802;23.964;2022-09-24T06:08:16;8.63;;;4.75;;
73437;SDS011;62744;56.802;23.964;2022-09-24T06:10:45;8.05;;;4.03;;
73437;SDS011;62744;56.802;23.964;2022-09-24T06:13:15;8.48;;;4.10;;
73437;SDS011;62744;56.802;23.964;2022-09-24T06:15:43;8.65;;;5.32;;
73437;SDS011;62744;56.802;23.964;2022-09-24T06:18:11;11.07;;;4.93;;
73437;SDS011;62744;56.802;23.964;2022-09-24T06:20:39;8.65;;;5.45;;
73437;SDS011;62744;56.802;23.964;2022-09-24T06:23:07;12.23;;;7.88;;
73437;SDS011;62744;56.802;23.964;2022-09-24T06:25:34;8.15;;;4.30;;
73437;SDS011;62744;56.802;23.964;2022-09-24T06:28:02;8.23;;;5.22;;
73437;SDS011;62744;56.802;23.964;2022-09-24T06:30:34;9.05;;;4.75;;
73437;SDS011;62744;56.802;23.964;2022-09-24T06:33:05;7.97;;;3.92;;
73437;SDS011;62744;56.802;23.964;2022-09-24T06:35:35;6.95;;;3.67;;
73437;SDS011;62744;56.802;23.964;2022-09-24T06:38:07;7.10;;;3.13;;
73437;SDS011;62744;56.802;23.964;2022-09-24T06:40:38;6.55;;;3.80;;
73437;SDS011;62744;56.802;23.964;2022-09-24T06:43:08;6.38;;;3.95;;
73437;SDS011;62744;56.802;23.964;2022-09-24T06:45:36;6.65;;;3.70;;
73437;SDS011;62744;56.802;23.964;2022-09-24T06:48:04;6.85;;;3.80;;
73437;SDS011;62744;56.802;23.964;2022-09-24T06:50:32;7.35;;;3.65;;
73437;SDS011;62744;56.802;23.964;2022-09-24T06:53:03;7.82;;;4.07;;
73437;SDS011;62744;56.802;23.964;2022-09-24T06:55:35;6.75;;;3.40;;
73437;SDS011;62744;56.802;23.964;2022-09-24T06:58:08;5.95;;;3.70;;
73437;SDS011;62744;56.802;23.964;2022-09-24T07:00:37;6.47;;;4.30;;
73437;SDS011;62744;56.802;23.964;2022-09-24T07:03:06;7.10;;;3.67;;
73437;SDS011;62744;56.802;23.964;2022-09-24T07:05:36;54.28;;;8.10;;
73437;SDS011;62744;56.802;23.964;2022-09-24T07:08:09;11.13;;;4.22;;
73437;SDS011;62744;56.802;23.964;2022-09-24T07:10:36;6.57;;;3.45;;
73437;SDS011;62744;56.802;23.964;2022-09-24T07:13:07;7.07;;;3.65;;
73437;SDS011;62744;56.802;23.964;2022-09-24T07:15:35;7.60;;;3.95;;
73437;SDS011;62744;56.802;23.964;2022-09-24T07:18:02;5.63;;;3.40;;
73437;SDS011;62744;56.802;23.964;2022-09-24T07:20:29;6.82;;;3.38;;
73437;SDS011;62744;56.802;23.964;2022-09-24T07:22:58;6.05;;;2.95;;
73437;SDS011;62744;56.802;23.964;2022-09-24T07:25:26;6.15;;;3.78;;
73437;SDS011;62744;56.802;23.964;2022-09-24T07:27:53;7.35;;;3.85;;
73437;SDS011;62744;56.802;23.964;2022-09-24T07:30:21;6.50;;;3.20;;
73437;SDS011;62744;56.802;23.964;2022-09-24T07:32:52;5.55;;;3.35;;
73437;SDS011;62744;56.802;23.964;2022-09-24T07:35:21;5.32;;;2.70;;
73437;SDS011;62744;56.802;23.964;2022-09-24T07:37:54;6.00;;;3.08;;
73437;SDS011;62744;56.802;23.964;2022-09-24T07:40:27;7.38;;;3.92;;
73437;SDS011;62744;56.802;23.964;2022-09-24T07:42:55;6.78;;;3.53;;
73437;SDS011;62744;56.802;23.964;2022-09-24T07:45:24;5.80;;;3.15;;
73437;SDS011;62744;56.802;23.964;2022-09-24T07:50:29;6.93;;;2.85;;
73437;SDS011;62744;56.802;23.964;2022-09-24T07:52:58;5.97;;;2.42;;
73437;SDS011;62744;56.802;23.964;2022-09-24T07:55:26;5.63;;;3.28;;
73437;SDS011;62744;56.802;23.964;2022-09-24T07:57:54;5.57;;;3.08;;
73437;SDS011;62744;56.802;23.964;2022-09-24T08:00:22;5.90;;;2.92;;
73437;SDS011;62744;56.802;23.964;2022-09-24T08:02:50;5.20;;;3.22;;
73437;SDS011;62744;56.802;23.964;2022-09-24T08:05:19;14.15;;;2.88;;
73437;SDS011;62744;56.802;23.964;2022-09-24T08:07:50;40.83;;;23.70;;
73437;SDS011;62744;56.802;23.964;2022-09-24T08:10:18;15.80;;;8.30;;
73437;SDS011;62744;56.802;23.964;2022-09-24T08:12:46;5.30;;;2.95;;
73437;SDS011;62744;56.802;23.964;2022-09-24T08:15:14;6.32;;;2.90;;
73437;SDS011;62744;56.802;23.964;2022-09-24T08:17:41;5.63;;;2.88;;
73437;SDS011;62744;56.802;23.964;2022-09-24T08:20:09;5.85;;;3.75;;
73437;SDS011;62744;56.802;23.964;2022-09-24T08:22:37;6.20;;;3.17;;
73437;SDS011;62744;56.802;23.964;2022-09-24T08:25:05;5.28;;;2.47;;
73437;SDS011;62744;56.802;23.964;2022-09-24T08:27:33;5.93;;;2.70;;
73437;SDS011;62744;56.802;23.964;2022-09-24T08:30:03;5.22;;;2.67;;
73437;SDS011;62744;56.802;23.964;2022-09-24T08:32:32;5.38;;;2.30;;
73437;SDS011;62744;56.802;23.964;2022-09-24T08:35:00;5.20;;;3.17;;
73437;SDS011;62744;56.802;23.964;2022-09-24T08:37:27;5.55;;;3.00;;
73437;SDS011;62744;56.802;23.964;2022-09-24T08:39:55;5.05;;;3.10;;
73437;SDS011;62744;56.802;23.964;2022-09-24T08:42:31;5.82;;;3.00;;
73437;SDS011;62744;56.802;23.964;2022-09-24T08:45:15;5.30;;;2.80;;
73437;SDS011;62744;56.802;23.964;2022-09-24T08:48:20;6.28;;;2.83;;
73437;SDS011;62744;56.802;23.964;2022-09-24T08:50:52;4.53;;;2.30;;
73437;SDS011;62744;56.802;23.964;2022-09-24T08:56:16;5.13;;;1.80;;
73437;SDS011;62744;56.802;23.964;2022-09-24T08:58:49;6.03;;;2.00;;
73437;SDS011;62744;56.802;23.964;2022-09-24T09:07:20;5.55;;;2.70;;
73437;SDS011;62744;56.802;23.964;2022-09-24T09:09:57;5.32;;;3.33;;
73437;SDS011;62744;56.802;23.964;2022-09-24T09:12:33;5.00;;;2.28;;
73437;SDS011;62744;56.802;23.964;2022-09-24T09:15:18;4.80;;;2.90;;
73437;SDS011;62744;56.802;23.964;2022-09-24T09:18:00;5.65;;;2.45;;
73437;SDS011;62744;56.802;23.964;2022-09-24T09:20:55;6.30;;;1.73;;
73437;SDS011;62744;56.802;23.964;2022-09-24T09:23:33;4.72;;;2.80;;
73437;SDS011;62744;56.802;23.964;2022-09-24T09:26:07;4.65;;;2.47;;
73437;SDS011;62744;56.802;23.964;2022-09-24T09:28:37;5.20;;;1.90;;
73437;SDS011;62744;56.802;23.964;2022-09-24T09:44:53;4.68;;;2.40;;
73437;SDS011;62744;56.802;23.964;2022-09-24T09:47:41;4.85;;;3.08;;
73437;SDS011;62744;56.802;23.964;2022-09-24T09:52:57;4.97;;;3.00;;
73437;SDS011;62744;56.802;23.964;2022-09-24T09:55:29;4.88;;;2.03;;
73437;SDS011;62744;56.802;23.964;2022-09-24T09:58:15;4.55;;;2.53;;
73437;SDS011;62744;56.802;23.964;2022-09-24T10:00:45;4.15;;;1.90;;
73437;SDS011;62744;56.802;23.964;2022-09-24T10:03:44;4.30;;;1.70;;
73437;SDS011;62744;56.802;23.964;2022-09-24T10:06:24;5.38;;;2.28;;
73437;SDS011;62744;56.802;23.964;2022-09-24T10:09:04;4.68;;;2.42;;
73437;SDS011;62744;56.802;23.964;2022-09-24T10:11:33;4.95;;;1.95;;
73437;SDS011;62744;56.802;23.964;2022-09-24T10:14:04;4.53;;;1.92;;
73437;SDS011;62744;56.802;23.964;2022-09-24T10:16:39;5.55;;;2.15;;
73437;SDS011;62744;56.802;23.964;2022-09-24T10:19:13;4.80;;;2.75;;
73437;SDS011;62744;56.802;23.964;2022-09-24T10:21:52;4.47;;;2.20;;
73437;SDS011;62744;56.802;23.964;2022-09-24T10:24:26;4.28;;;2.22;;
73437;SDS011;62744;56.802;23.964;2022-09-24T10:26:54;4.65;;;2.25;;
73437;SDS011;62744;56.802;23.964;2022-09-24T10:29:24;4.82;;;2.00;;
73437;SDS011;62744;56.802;23.964;2022-09-24T10:32:16;12.57;;;6.00;;
73437;SDS011;62744;56.802;23.964;2022-09-24T10:34:55;8.52;;;3.80;;
73437;SDS011;62744;56.802;23.964;2022-09-24T10:37:28;45.78;;;25.13;;
73437;SDS011;62744;56.802;23.964;2022-09-24T10:39:59;11.52;;;5.90;;
73437;SDS011;62744;56.802;23.964;2022-09-24T10:42:29;6.25;;;3.05;;
73437;SDS011;62744;56.802;23.964;2022-09-24T10:44:58;6.87;;;3.73;;
73437;SDS011;62744;56.802;23.964;2022-09-24T10:50:18;4.60;;;2.33;;
73437;SDS011;62744;56.802;23.964;2022-09-24T10:59:15;5.65;;;2.25;;
73437;SDS011;62744;56.802;23.964;2022-09-24T11:02:34;4.45;;;2.03;;
73437;SDS011;62744;56.802;23.964;2022-09-24T11:04:48;5.05;;;2.38;;
73437;SDS011;62744;56.802;23.964;2022-09-24T11:32:56;5.35;;;2.17;;
73437;SDS011;62744;56.802;23.964;2022-09-24T11:38:15;5.63;;;2.15;;
73437;SDS011;62744;56.802;23.964;2022-09-24T11:41:24;4.13;;;2.20;;
73437;SDS011;62744;56.802;23.964;2022-09-24T11:52:10;13.82;;;8.63;;
73437;SDS011;62744;56.802;23.964;2022-09-24T11:57:38;9.45;;;4.70;;
73437;SDS011;62744;56.802;23.964;2022-09-24T12:00:19;8.80;;;5.30;;
73437;SDS011;62744;56.802;23.964;2022-09-24T12:02:51;14.38;;;7.05;;
73437;SDS011;62744;56.802;23.964;2022-09-24T12:05:37;9.85;;;5.20;;
73437;SDS011;62744;56.802;23.964;2022-09-24T12:10:51;57.33;;;29.83;;
73437;SDS011;62744;56.802;23.964;2022-09-24T12:13:33;27.10;;;14.80;;
73437;SDS011;62744;56.802;23.964;2022-09-24T12:16:09;14.07;;;6.05;;
73437;SDS011;62744;56.802;23.964;2022-09-24T12:18:58;48.92;;;21.65;;
73437;SDS011;62744;56.802;23.964;2022-09-24T12:21:39;5.65;;;2.00;;
73437;SDS011;62744;56.802;23.964;2022-09-24T12:26:48;12.32;;;5.70;;
73437;SDS011;62744;56.802;23.964;2022-09-24T12:32:25;17.80;;;8.80;;
73437;SDS011;62744;56.802;23.964;2022-09-24T12:37:57;5.10;;;2.53;;
73437;SDS011;62744;56.802;23.964;2022-09-24T12:43:38;8.85;;;3.97;;
73437;SDS011;62744;56.802;23.964;2022-09-24T12:46:11;7.10;;;2.83;;
73437;SDS011;62744;56.802;23.964;2022-09-24T12:48:45;6.65;;;3.05;;
73437;SDS011;62744;56.802;23.964;2022-09-24T12:51:15;7.05;;;2.60;;
73437;SDS011;62744;56.802;23.964;2022-09-24T12:53:58;10.18;;;5.00;;
73437;SDS011;62744;56.802;23.964;2022-09-24T12:56:31;7.43;;;3.33;;
73437;SDS011;62744;56.802;23.964;2022-09-24T12:59:00;5.70;;;2.55;;
73437;SDS011;62744;56.802;23.964;2022-09-24T13:01:31;10.10;;;4.95;;
73437;SDS011;62744;56.802;23.964;2022-09-24T13:06:43;7.80;;;3.80;;
73437;SDS011;62744;56.802;23.964;2022-09-24T13:20:36;7.20;;;3.30;;
73437;SDS011;62744;56.802;23.964;2022-09-24T13:23:12;9.15;;;4.60;;
73437;SDS011;62744;56.802;23.964;2022-09-24T13:25:58;5.95;;;3.78;;
73437;SDS011;62744;56.802;23.964;2022-09-24T13:28:31;10.25;;;5.25;;
73437;SDS011;62744;56.802;23.964;2022-09-24T13:31:21;14.15;;;5.95;;
73437;SDS011;62744;56.802;23.964;2022-09-24T13:33:58;8.15;;;3.88;;
73437;SDS011;62744;56.802;23.964;2022-09-24T13:36:47;9.98;;;4.53;;
73437;SDS011;62744;56.802;23.964;2022-09-24T13:39:22;10.32;;;4.35;;
73437;SDS011;62744;56.802;23.964;2022-09-24T13:44:37;9.38;;;4.72;;
73437;SDS011;62744;56.802;23.964;2022-09-24T13:50:44;8.13;;;4.28;;
73437;SDS011;62744;56.802;23.964;2022-09-24T13:55:33;9.55;;;4.53;;
73437;SDS011;62744;56.802;23.964;2022-09-24T14:01:17;8.18;;;3.28;;
73437;SDS011;62744;56.802;23.964;2022-09-24T14:03:56;6.25;;;2.92;;
73437;SDS011;62744;56.802;23.964;2022-09-24T14:06:33;12.63;;;6.05;;
73437;SDS011;62744;56.802;23.964;2022-09-24T14:09:13;4.68;;;2.45;;
73437;SDS011;62744;56.802;23.964;2022-09-24T14:12:02;5.15;;;2.13;;
73437;SDS011;62744;56.802;23.964;2022-09-24T14:14:43;8.60;;;3.30;;
73437;SDS011;62744;56.802;23.964;2022-09-24T14:17:16;6.10;;;2.63;;
73437;SDS011;62744;56.802;23.964;2022-09-24T14:19:44;5.50;;;2.30;;
73437;SDS011;62744;56.802;23.964;2022-09-24T14:22:22;7.10;;;2.80;;
73437;SDS011;62744;56.802;23.964;2022-09-24T14:27:58;5.95;;;2.90;;
73437;SDS011;62744;56.802;23.964;2022-09-24T14:30:27;4.70;;;2.33;;
73437;SDS011;62744;56.802;23.964;2022-09-24T14:33:12;5.50;;;2.72;;
73437;SDS011;62744;56.802;23.964;2022-09-24T14:35:44;4.97;;;2.42;;
73437;SDS011;62744;56.802;23.964;2022-09-24T14:40:53;5.35;;;2.65;;
73437;SDS011;62744;56.802;23.964;2022-09-24T14:43:28;5.97;;;3.00;;
73437;SDS011;62744;56.802;23.964;2022-09-24T14:46:15;5.00;;;3.10;;
73437;SDS011;62744;56.802;23.964;2022-09-24T14:52:02;4.43;;;2.22;;
73437;SDS011;62744;56.802;23.964;2022-09-24T14:54:37;4.80;;;2.70;;
73437;SDS011;62744;56.802;23.964;2022-09-24T14:59:45;5.03;;;2.72;;
73437;SDS011;62744;56.802;23.964;2022-09-24T15:04:46;4.75;;;2.42;;
73437;SDS011;62744;56.802;23.964;2022-09-24T15:07:17;5.03;;;3.22;;
73437;SDS011;62744;56.802;23.964;2022-09-24T15:09:51;4.72;;;2.45;;
73437;SDS011;62744;56.802;23.964;2022-09-24T15:12:25;9.40;;;4.07;;
73437;SDS011;62744;56.802;23.964;2022-09-24T15:15:05;7.45;;;3.10;;
73437;SDS011;62744;56.802;23.964;2022-09-24T15:17:48;9.80;;;3.90;;
73437;SDS011;62744;56.802;23.964;2022-09-24T15:20:15;11.68;;;5.25;;
73437;SDS011;62744;56.802;23.964;2022-09-24T15:22:42;12.95;;;5.55;;
73437;SDS011;62744;56.802;23.964;2022-09-24T15:25:13;12.95;;;6.18;;
73437;SDS011;62744;56.802;23.964;2022-09-24T15:27:41;10.82;;;5.50;;
73437;SDS011;62744;56.802;23.964;2022-09-24T15:30:10;9.20;;;5.07;;
73437;SDS011;62744;56.802;23.964;2022-09-24T15:32:43;8.70;;;4.05;;
73437;SDS011;62744;56.802;23.964;2022-09-24T15:35:12;9.10;;;4.22;;
73437;SDS011;62744;56.802;23.964;2022-09-24T15:37:41;10.25;;;5.38;;
73437;SDS011;62744;56.802;23.964;2022-09-24T15:40:19;10.35;;;5.18;;
73437;SDS011;62744;56.802;23.964;2022-09-24T15:42:49;7.63;;;3.80;;
73437;SDS011;62744;56.802;23.964;2022-09-24T15:45:18;8.07;;;3.70;;
73437;SDS011;62744;56.802;23.964;2022-09-24T15:47:50;7.47;;;3.53;;
73437;SDS011;62744;56.802;23.964;2022-09-24T15:50:19;14.30;;;6.95;;
73437;SDS011;62744;56.802;23.964;2022-09-24T15:52:52;22.13;;;11.13;;
73437;SDS011;62744;56.802;23.964;2022-09-24T15:55:24;23.55;;;12.80;;
73437;SDS011;62744;56.802;23.964;2022-09-24T15:57:51;104.75;;;51.50;;
73437;SDS011;62744;56.802;23.964;2022-09-24T16:00:20;117.25;;;59.80;;
73437;SDS011;62744;56.802;23.964;2022-09-24T16:02:50;81.70;;;40.75;;
73437;SDS011;62744;56.802;23.964;2022-09-24T16:05:20;47.20;;;25.65;;
73437;SDS011;62744;56.802;23.964;2022-09-24T16:07:49;44.33;;;25.48;;
73437;SDS011;62744;56.802;23.964;2022-09-24T16:10:16;20.02;;;12.13;;
73437;SDS011;62744;56.802;23.964;2022-09-24T16:12:45;15.13;;;7.22;;
73437;SDS011;62744;56.802;23.964;2022-09-24T16:15:13;17.33;;;8.50;;
73437;SDS011;62744;56.802;23.964;2022-09-24T16:17:41;15.32;;;8.43;;
73437;SDS011;62744;56.802;23.964;2022-09-24T16:20:09;15.27;;;6.88;;
73437;SDS011;62744;56.802;23.964;2022-09-24T16:22:36;12.07;;;6.00;;
73437;SDS011;62744;56.802;23.964;2022-09-24T16:25:04;12.35;;;6.10;;
73437;SDS011;62744;56.802;23.964;2022-09-24T16:27:32;15.30;;;6.20;;
73437;SDS011;62744;56.802;23.964;2022-09-24T16:30:00;17.92;;;6.70;;
73437;SDS011;62744;56.802;23.964;2022-09-24T16:32:28;11.02;;;5.50;;
73437;SDS011;62744;56.802;23.964;2022-09-24T16:34:56;16.52;;;7.38;;
73437;SDS011;62744;56.802;23.964;2022-09-24T16:37:24;13.30;;;7.13;;
73437;SDS011;62744;56.802;23.964;2022-09-24T16:39:52;13.40;;;6.90;;
73437;SDS011;62744;56.802;23.964;2022-09-24T16:42:20;13.63;;;6.20;;
73437;SDS011;62744;56.802;23.964;2022-09-24T16:44:51;13.77;;;6.03;;
73437;SDS011;62744;56.802;23.964;2022-09-24T16:47:19;15.30;;;8.10;;
73437;SDS011;62744;56.802;23.964;2022-09-24T16:49:46;10.02;;;5.03;;
73437;SDS011;62744;56.802;23.964;2022-09-24T16:52:14;9.77;;;4.40;;
73437;SDS011;62744;56.802;23.964;2022-09-24T16:54:41;8.55;;;4.47;;
73437;SDS011;62744;56.802;23.964;2022-09-24T16:57:09;11.25;;;4.88;;
73437;SDS011;62744;56.802;23.964;2022-09-24T16:59:38;10.20;;;4.95;;
73437;SDS011;62744;56.802;23.964;2022-09-24T17:02:06;19.88;;;9.27;;
73437;SDS011;62744;56.802;23.964;2022-09-24T17:04:36;11.20;;;6.57;;
73437;SDS011;62744;56.802;23.964;2022-09-24T17:07:05;11.95;;;6.25;;
73437;SDS011;62744;56.802;23.964;2022-09-24T17:09:32;13.23;;;7.07;;
73437;SDS011;62744;56.802;23.964;2022-09-24T17:12:18;15.85;;;8.77;;
73437;SDS011;62744;56.802;23.964;2022-09-24T17:14:46;19.17;;;9.50;;
73437;SDS011;62744;56.802;23.964;2022-09-24T17:17:13;19.63;;;11.00;;
73437;SDS011;62744;56.802;23.964;2022-09-24T17:19:41;18.95;;;9.40;;
73437;SDS011;62744;56.802;23.964;2022-09-24T17:22:08;18.45;;;9.75;;
73437;SDS011;62744;56.802;23.964;2022-09-24T17:24:35;31.20;;;10.73;;
73437;SDS011;62744;56.802;23.964;2022-09-24T17:27:06;20.67;;;10.50;;